Owen Sound, Canada
Current Conditions -  °F | °C
As of 9:00 AM on Monday 20 Oct 2014 (Local Time) from CYVV Reporting Station
Haze Haze  
Wind Chill: 39°   Ceiling: 1600
Heat Index: 45°   Visibility: 5mi
Dew Point: 45°   Wind: 10mph
Humidity: 100%   Direction: 180°S
Pressure: 29.79"   Gusts: NA
Location:  44.56°N, 80.94°W
Report Text: CYVV 201300Z 18009KT 5SM BR FEW010 OVC016 07/07 A2979 RMKSF2SC6 SLP095
Loading
Personal Weather Stations






























Interactive Weather Map
Tropical Storm Tracking
New forecast layout! Learn more

10-Day Weather Forecast

Advertisements
Track Severe Weather on mobile